WetterOnline ( https://www.wetteronline.de )

Wetter aktuell Denkendorf

Aktuelles Wetter: Gelbelsee (539m)

6-stündlich | Neueste Meldungen
Ortszeit Temperatur Wetter
Di, 16.07. 14:00 22.7° C bewölkt
Di, 16.07. 8:00 17.5° C bedeckt
Di, 16.07. 2:00 19.8° C bewölkt
Mo, 15.07. 20:00 26.6° C bedeckt
Mo, 15.07. 14:00 27.6° C leicht bewölkt
Mo, 15.07. 8:00 18.9° C leicht bewölkt
Mo, 15.07. 2:00 17.4° C wolkig
So, 14.07. 20:00 21.2° C bedeckt
Ortszeit Temperatur Wetter
Di, 16.07. 14:00 22.7° C bewölkt
Di, 16.07. 13:50 22.7° C bewölkt
Di, 16.07. 13:40 22.4° C bedeckt
Di, 16.07. 13:30 22.6° C wolkig
Di, 16.07. 13:20 22.6° C wolkig
Di, 16.07. 13:10 22.5° C bedeckt
Di, 16.07. 13:00 21.3° C bewölkt
Di, 16.07. 12:30 20.8° C bewölkt
Di, 16.07. 12:00 20.3° C wolkig
Di, 16.07. 11:30 20.2° C bewölkt
Di, 16.07. 11:00 20.1° C bewölkt
Ortszeit Relative Feuchte Sichtweite
Di, 16.07. 14:00 69% 65 km
Di, 16.07. 8:00 98% 7 km
Di, 16.07. 2:00 75% 60 km
Mo, 15.07. 20:00 48% 50 km
Mo, 15.07. 14:00 35% 35 km
Mo, 15.07. 8:00 74% 65 km
Mo, 15.07. 2:00 71% 65 km
So, 14.07. 20:00 64% 65 km
Ortszeit Relative Feuchte Sichtweite
Di, 16.07. 14:00 69% 65 km
Di, 16.07. 13:50 69% -
Di, 16.07. 13:40 70% -
Di, 16.07. 13:30 70% 60 km
Di, 16.07. 13:20 70% -
Di, 16.07. 13:10 71% -
Di, 16.07. 13:00 74% 60 km
Di, 16.07. 12:30 78% 35 km
Di, 16.07. 12:00 79% 40 km
Di, 16.07. 11:30 80% 45 km
Di, 16.07. 11:00 83% 30 km
Ortszeit Niederschlagsmenge Niederschlagsart
Di, 16.07. 14:00 0.1 l/m2 in 6 Std. Regen
Di, 16.07. 8:00 5 l/m2 in 12 Std. Regen
Di, 16.07. 2:00 0.1 l/m2 in 6 Std. Regen
Mo, 15.07. 20:00 0.0 l/m2 in 12 Std. -
Mo, 15.07. 14:00 0.0 l/m2 in 6 Std. -
Mo, 15.07. 8:00 0.0 l/m2 in 12 Std. -
Mo, 15.07. 2:00 0.0 l/m2 in 6 Std. -
So, 14.07. 20:00 0.0 l/m2 in 12 Std. -
Ortszeit Niederschlagsmenge Niederschlagsart
Di, 16.07. 14:00 0.0 l/m2 in 1 Std. Regen
Di, 16.07. 13:50 keine Meldung -
Di, 16.07. 13:40 keine Meldung -
Di, 16.07. 13:30 0.0 l/m2 in 30 Min -
Di, 16.07. 13:20 keine Meldung -
Di, 16.07. 13:10 keine Meldung -
Di, 16.07. 13:00 0.0 l/m2 in 1 Std. -
Di, 16.07. 12:30 0.0 l/m2 in 30 Min -
Di, 16.07. 12:00 <0.05 l/m2 in 1 Std. Regen
Di, 16.07. 11:30 0.0 l/m2 in 30 Min -
Di, 16.07. 11:00 <0.05 l/m2 in 1 Std. Regen
Ortszeit Stärke Spitze Richtung
km/h Bft. km/h Grad Sektor
Di, 16.07. 14:00 9 2 26 240° SW
Di, 16.07. 8:00 11 2 40 210° SW
Di, 16.07. 2:00 22 4 43 270° W
Mo, 15.07. 20:00 7 2 22 110° O
Mo, 15.07. 14:00 7 2 18 150° SO
Mo, 15.07. 8:00 7 2 11 140° SO
Mo, 15.07. 2:00 4 1 7 170° S
So, 14.07. 20:00 2 1 31 280° W
Ortszeit Stärke Spitze Richtung
km/h Bft. km/h Grad Sektor
Di, 16.07. 14:00 9 2 20 240° SW
Di, 16.07. 13:50 9 2 - 240° SW
Di, 16.07. 13:40 11 2 - 230° SW
Di, 16.07. 13:30 11 2 22 240° SW
Di, 16.07. 13:20 11 2 - 240° SW
Di, 16.07. 13:10 11 2 - 260° W
Di, 16.07. 13:00 9 2 20 280° W
Di, 16.07. 12:30 9 2 20 250° W
Di, 16.07. 12:00 14 3 25 270° W
Di, 16.07. 11:30 17 3 26 270° W
Di, 16.07. 11:00 13 3 22 270° W
Ortszeit Untergrenze Bedeckung Gattung
total tief tief mittel hoch
Di, 16.07. 14:00 780 m 8/8 5/8 - - -
Di, 16.07. 8:00 60 m 8/8 8/8 - - -
Di, 16.07. 2:00 1410 m 8/8 6/8 - - -
Mo, 15.07. 20:00 4200 m 8/8 8/8 - - -
Mo, 15.07. 14:00 6600 m 4/8 4/8 - - -
Mo, 15.07. 8:00 7500 m 8/8 0/8 - - -
Mo, 15.07. 2:00 3000 m 6/8 6/8 - - -
So, 14.07. 20:00 4200 m 8/8 8/8 - - -
Ortszeit Bedeckungsgrad in Achtel und Wolkenuntergrenze
Di, 16.07. 14:00 4(780m) 5(2400m) 8(4200m)
Di, 16.07. 13:50 4(780m) 5(2400m) 8(4200m)
Di, 16.07. 13:40 8
Di, 16.07. 13:30 3(600m) 7(3000m) 8(3900m)
Di, 16.07. 13:20 3(600m) 7(3000m) 8(3900m)
Di, 16.07. 13:10 8
Di, 16.07. 13:00 4(540m) 7(840m) 8(3600m)
Di, 16.07. 12:30 6(480m) 8(3600m) 8(4500m)
Di, 16.07. 12:00 2(510m) 8(3600m)
Di, 16.07. 11:30 4(450m) 7(3900m) 8(5400m)
Di, 16.07. 11:00 3(270m) 6(450m) 8(4200m)
Ortszeit Luftdruck NN (hPa) Tendenz (hPa in 3 Std.)
Di, 16.07. 14:00 1014 + 0,2
Di, 16.07. 8:00 1014 + 1,1
Di, 16.07. 2:00 1013 + 3,0
Mo, 15.07. 20:00 1009 - 0,9
Mo, 15.07. 14:00 1011 - 0,8
Mo, 15.07. 8:00 1014 0,0
Mo, 15.07. 2:00 1014 - 0,3
So, 14.07. 20:00 1014 + 0,5
Ortszeit Luftdruck NN (hPa) Tendenz (hPa in 3 Std.)
Di, 16.07. 14:00 1014 + 0,2
Di, 16.07. 13:50 1014 keine Meldung
Di, 16.07. 13:40 1014 keine Meldung
Di, 16.07. 13:30 1014 + 0,3
Di, 16.07. 13:20 1014 keine Meldung
Di, 16.07. 13:10 1014 keine Meldung
Di, 16.07. 13:00 1015 + 0,4
Di, 16.07. 12:30 1015 + 0,3
Di, 16.07. 12:00 1015 + 0,4
Di, 16.07. 11:30 1015 + 0,5
Di, 16.07. 11:00 1015 + 0,8
Ortszeit Schneehöhe (cm)
Di, 16.07. 14:00 0
Di, 16.07. 8:00 0
Di, 16.07. 2:00 0
Mo, 15.07. 20:00 0
Mo, 15.07. 14:00 0
Mo, 15.07. 8:00 0
Mo, 15.07. 2:00 0
So, 14.07. 20:00 0
Ortszeit Schneehöhe (cm)
Di, 16.07. 14:00 0
Di, 16.07. 13:50 0
Di, 16.07. 13:40 -
Di, 16.07. 13:30 0
Di, 16.07. 13:20 0
Di, 16.07. 13:10 -
Di, 16.07. 13:00 0
Di, 16.07. 12:30 0
Di, 16.07. 12:00 0
Di, 16.07. 11:30 0
Di, 16.07. 11:00 0
Link zu dieser Seite / Seite empfehlen

Das Wetter in ...